Time;durP1;ratioP1;P1;durP2;ratioP2;P2;SDS_P1;SDS_P2;PMS_P1;PMS_P2;Temp;Humidity;BMP_temperature;BMP_pressure;BME280_temperature;BME280_humidity;BME280_pressure;Samples;Min_cycle;Max_cycle;Signal;HPM_P1;HPM_P2
2022/11/02 00:01:12;;;;;;;23.08;18.40;;;9.90;99.90;;;;;;5007185;28;20048;-70
2022/11/02 00:03:39;;;;;;;26.90;19.25;;;9.80;99.90;;;;;;5005877;28;20046;-71
2022/11/02 00:06:05;;;;;;;21.08;18.08;;;9.90;99.90;;;;;;5030878;28;20037;-70
2022/11/02 00:08:32;;;;;;;20.38;18.60;;;9.80;99.90;;;;;;5025700;28;20038;-71
2022/11/02 00:10:59;;;;;;;23.98;18.13;;;9.80;99.90;;;;;;5035553;28;20044;-71
2022/11/02 00:13:25;;;;;;;19.98;18.13;;;9.80;99.90;;;;;;5028342;28;20495;-71
2022/11/02 00:15:52;;;;;;;19.88;17.83;;;9.80;99.90;;;;;;5024614;28;20045;-71
2022/11/02 00:18:19;;;;;;;19.98;17.95;;;9.80;99.90;;;;;;5034562;28;20680;-71
2022/11/02 00:20:46;;;;;;;19.77;18.08;;;9.80;99.90;;;;;;5029621;28;20051;-71
2022/11/02 00:23:14;;;;;;;19.33;17.65;;;9.80;99.90;;;;;;5006847;28;20057;-71
2022/11/02 00:25:44;;;;;;;20.38;18.50;;;9.90;99.90;;;;;;5030489;28;20450;-71
2022/11/02 00:28:12;;;;;;;22.85;18.55;;;9.90;99.90;;;;;;5017625;28;20041;-70
2022/11/02 00:30:39;;;;;;;26.80;19.08;;;9.90;99.90;;;;;;5024594;28;20049;-73
2022/11/02 00:33:06;;;;;;;21.60;18.42;;;9.90;99.90;;;;;;5027328;28;20037;-71
2022/11/02 00:35:34;;;;;;;21.83;18.77;;;10.00;99.90;;;;;;5008135;28;20049;-71
2022/11/02 00:38:01;;;;;;;23.77;19.42;;;9.90;99.90;;;;;;5031273;28;20067;-70
2022/11/02 00:40:28;;;;;;;20.88;18.77;;;10.00;99.90;;;;;;5011351;28;20157;-69
2022/11/02 00:42:55;;;;;;;21.33;19.27;;;9.90;99.90;;;;;;5030327;28;20045;-69
2022/11/02 00:45:22;;;;;;;19.50;17.67;;;9.90;99.90;;;;;;5012282;28;20048;-69
2022/11/02 00:47:49;;;;;;;19.80;17.85;;;9.90;99.90;;;;;;5009915;28;20041;-69
2022/11/02 00:50:17;;;;;;;26.00;18.88;;;9.90;99.90;;;;;;5008843;28;20029;-68
2022/11/02 00:52:44;;;;;;;20.98;18.65;;;9.90;99.90;;;;;;5018124;28;20030;-69
2022/11/02 00:55:13;;;;;;;21.83;19.67;;;9.90;99.90;;;;;;5020352;28;20037;-69
2022/11/02 00:57:43;;;;;;;20.73;18.58;;;9.90;99.90;;;;;;5004666;28;20045;-69
2022/11/02 01:00:10;;;;;;;23.05;19.08;;;9.80;99.90;;;;;;5011332;28;20049;-69
2022/11/02 01:02:38;;;;;;;22.00;18.75;;;9.70;99.90;;;;;;5011461;28;20586;-69
2022/11/02 01:05:06;;;;;;;25.35;19.70;;;9.80;99.90;;;;;;5024689;28;20053;-69
2022/11/02 01:07:33;;;;;;;21.30;19.30;;;9.70;99.90;;;;;;5014795;28;20045;-68
2022/11/02 01:09:59;;;;;;;22.05;18.52;;;9.70;99.90;;;;;;5016864;28;20719;-69
2022/11/02 01:12:26;;;;;;;20.45;18.23;;;9.60;99.90;;;;;;5006590;28;20069;-69
2022/11/02 01:15:10;;;;;;;21.38;19.23;;;9.50;99.90;;;;;;5010340;28;20139;-69
2022/11/02 01:17:37;;;;;;;19.98;18.13;;;9.60;99.90;;;;;;5033267;28;20037;-69
2022/11/02 01:20:06;;;;;;;21.17;19.10;;;9.50;99.90;;;;;;5009830;28;20458;-69
2022/11/02 01:22:33;;;;;;;20.15;17.95;;;9.50;99.90;;;;;;5031903;28;20047;-69
2022/11/02 01:25:00;;;;;;;19.23;17.27;;;9.50;99.90;;;;;;5037786;23;20036;-71
2022/11/02 01:27:26;;;;;;;18.77;16.83;;;9.50;99.90;;;;;;5019622;28;20073;-70
2022/11/02 01:29:53;;;;;;;21.67;18.17;;;9.60;99.90;;;;;;5014805;28;20085;-70
2022/11/02 01:32:20;;;;;;;20.98;17.55;;;9.60;99.90;;;;;;5032877;28;20040;-70
2022/11/02 01:34:47;;;;;;;19.58;17.58;;;9.70;99.90;;;;;;5018417;28;20510;-71
2022/11/02 01:37:14;;;;;;;23.27;17.80;;;9.70;99.90;;;;;;5023211;28;20451;-70
2022/11/02 01:39:41;;;;;;;19.38;17.70;;;9.80;99.90;;;;;;5027662;28;20140;-69
2022/11/02 01:42:23;;;;;;;19.83;17.90;;;9.80;99.90;;;;;;5019134;28;20068;-70
2022/11/02 01:44:50;;;;;;;19.65;17.90;;;9.80;99.90;;;;;;5029444;28;20073;-71
2022/11/02 01:47:20;;;;;;;22.85;17.08;;;9.90;99.90;;;;;;5009941;28;20048;-71
2022/11/02 01:49:50;;;;;;;20.35;17.88;;;9.90;99.90;;;;;;5035052;28;20064;-70
2022/11/02 01:52:36;;;;;;;21.27;17.63;;;9.90;99.90;;;;;;5019028;28;20057;-70
2022/11/02 01:55:10;;;;;;;20.40;18.58;;;10.00;99.90;;;;;;5034974;28;20084;-70
2022/11/02 01:57:40;;;;;;;19.98;17.25;;;10.00;99.90;;;;;;5024727;28;20116;-70
2022/11/02 02:00:12;;;;;;;22.40;17.48;;;10.10;99.90;;;;;;5017530;28;20107;-70
2022/11/02 02:02:49;;;;;;;18.77;16.80;;;10.10;99.90;;;;;;5023574;28;20041;-72
2022/11/02 02:05:18;;;;;;;24.30;18.30;;;10.20;99.90;;;;;;5037146;28;20049;-72
2022/11/02 02:07:46;;;;;;;22.20;18.30;;;10.20;99.90;;;;;;5024116;28;20047;-72
2022/11/02 02:10:13;;;;;;;22.45;19.77;;;10.30;99.90;;;;;;5022632;28;20106;-73
2022/11/02 02:12:42;;;;;;;19.77;17.85;;;10.20;99.90;;;;;;5030526;28;20041;-71
2022/11/02 02:15:11;;;;;;;21.55;17.52;;;10.30;99.90;;;;;;5019224;28;20041;-72
2022/11/02 02:18:06;;;;;;;26.33;18.48;;;10.30;99.90;;;;;;5039142;28;20064;-70
2022/11/02 02:20:54;;;;;;;20.88;18.30;;;10.20;99.90;;;;;;5019061;28;20033;-70
2022/11/02 02:23:59;;;;;;;20.75;18.73;;;10.20;99.90;;;;;;5043914;28;20045;-72
2022/11/02 02:26:50;;;;;;;18.50;17.05;;;10.10;99.90;;;;;;5044953;28;20038;-72
2022/11/02 02:29:40;;;;;;;23.15;17.52;;;10.10;99.90;;;;;;5038813;28;20137;-73
2022/11/02 02:32:13;;;;;;;20.17;18.17;;;10.00;99.90;;;;;;5017125;28;20569;-73
2022/11/02 02:34:49;;;;;;;22.85;17.80;;;10.10;99.90;;;;;;5032272;28;20042;-70
2022/11/02 02:37:22;;;;;;;19.83;17.95;;;10.10;99.90;;;;;;5026796;28;20608;-70
2022/11/02 02:40:03;;;;;;;19.38;17.42;;;10.10;99.90;;;;;;5019633;28;20041;-70
2022/11/02 02:42:59;;;;;;;19.55;17.45;;;10.20;99.90;;;;;;5031746;28;20041;-71
2022/11/02 02:45:33;;;;;;;20.90;18.45;;;10.20;99.90;;;;;;5009955;28;20080;-70
2022/11/02 02:48:10;;;;;;;19.48;17.42;;;10.20;99.90;;;;;;5051488;28;20484;-71
2022/11/02 02:51:06;;;;;;;21.35;18.30;;;10.10;99.90;;;;;;5033443;28;20168;-70
2022/11/02 02:53:42;;;;;;;21.05;18.25;;;10.10;99.90;;;;;;5028978;28;20145;-69
2022/11/02 02:56:10;;;;;;;22.20;17.60;;;10.10;99.90;;;;;;5039784;28;20096;-69
2022/11/02 02:58:50;;;;;;;25.20;18.50;;;10.10;99.90;;;;;;5048789;28;20034;-70
2022/11/02 03:01:17;;;;;;;21.38;18.08;;;10.10;99.90;;;;;;5073662;28;20063;-69
2022/11/02 03:03:45;;;;;;;20.13;17.70;;;10.00;99.90;;;;;;5050573;28;20562;-72
2022/11/02 03:06:17;;;;;;;19.13;17.30;;;10.00;99.90;;;;;;5035393;28;20099;-70
2022/11/02 03:09:13;;;;;;;20.42;17.70;;;9.90;99.90;;;;;;5023726;28;20057;-70
2022/11/02 03:12:16;;;;;;;19.13;17.25;;;9.90;99.90;;;;;;5014853;28;20194;-70
2022/11/02 03:15:19;;;;;;;18.83;17.00;;;9.90;99.90;;;;;;5010420;28;20156;-69
2022/11/02 03:17:50;;;;;;;25.65;17.23;;;9.80;99.90;;;;;;5025436;28;20037;-70
2022/11/02 03:20:38;;;;;;;20.13;17.98;;;9.80;99.90;;;;;;5023903;28;20103;-71
2022/11/02 03:23:22;;;;;;;18.55;17.05;;;9.80;99.90;;;;;;5022142;28;20172;-70
2022/11/02 03:25:55;;;;;;;27.08;17.00;;;9.80;99.90;;;;;;5021044;28;20045;-71
2022/11/02 03:28:46;;;;;;;20.98;16.63;;;9.80;99.90;;;;;;5026093;28;20076;-70
2022/11/02 03:31:46;;;;;;;21.80;18.23;;;9.80;99.90;;;;;;5030639;28;20038;-70
2022/11/02 03:34:38;;;;;;;19.50;17.65;;;9.70;99.90;;;;;;5010436;28;20057;-70
2022/11/02 03:37:19;;;;;;;24.52;17.75;;;9.80;99.90;;;;;;5032154;28;20501;-70
2022/11/02 03:39:57;;;;;;;20.45;17.55;;;9.80;99.90;;;;;;5015714;28;20045;-69
2022/11/02 03:42:26;;;;;;;21.00;18.90;;;9.80;99.90;;;;;;5010696;28;20076;-70
2022/11/02 03:45:00;;;;;;;25.10;17.02;;;9.80;99.90;;;;;;5031999;28;20128;-70
2022/11/02 03:47:32;;;;;;;18.75;17.13;;;9.80;99.90;;;;;;5020809;28;20487;-70
2022/11/02 03:50:05;;;;;;;20.17;17.98;;;9.80;99.90;;;;;;5039540;28;20041;-70
2022/11/02 03:52:35;;;;;;;20.15;18.23;;;9.80;99.90;;;;;;5009611;28;20328;-70
2022/11/02 03:55:05;;;;;;;18.55;16.92;;;9.70;99.90;;;;;;5018662;28;20610;-70
2022/11/02 03:57:44;;;;;;;21.05;17.15;;;9.70;99.90;;;;;;5033858;28;20041;-70
2022/11/02 04:00:19;;;;;;;21.65;18.60;;;9.80;99.90;;;;;;5036312;28;20045;-70
2022/11/02 04:02:58;;;;;;;21.10;17.20;;;9.80;99.90;;;;;;5026594;28;20071;-71
2022/11/02 04:05:31;;;;;;;20.25;17.65;;;9.80;99.90;;;;;;5022758;28;22188;-71
2022/11/02 04:08:21;;;;;;;19.70;17.75;;;9.80;99.90;;;;;;5023572;28;20049;-73
2022/11/02 04:16:26;;;;;;;25.80;18.35;;;9.60;99.90;;;;;;5026878;28;20037;-71
2022/11/02 04:25:14;;;;;;;19.48;17.42;;;9.50;99.90;;;;;;5029681;28;20430;-70
2022/11/02 04:27:16;;;;;;;20.67;17.35;;;9.40;99.90;;;;;;5032974;28;20743;-71
2022/11/02 04:29:48;;;;;;;23.38;17.42;;;9.30;99.90;;;;;;5021993;28;20036;-70
2022/11/02 04:33:31;;;;;;;21.85;16.73;;;9.20;99.90;;;;;;5037804;28;20041;-71
2022/11/02 04:35:04;;;;;;;20.90;16.60;;;9.20;99.90;;;;;;5027715;28;20041;-70
2022/11/02 04:40:28;;;;;;;18.67;15.88;;;9.10;99.90;;;;;;5021984;28;20056;-70
2022/11/02 04:42:56;;;;;;;21.35;16.83;;;9.00;99.90;;;;;;5029137;28;20522;-72
2022/11/02 04:45:23;;;;;;;18.58;15.75;;;9.00;99.90;;;;;;5021324;28;20045;-73
2022/11/02 04:47:50;;;;;;;22.00;15.23;;;8.90;99.90;;;;;;5013654;28;20634;-70
2022/11/02 04:50:17;;;;;;;17.23;15.45;;;8.90;99.90;;;;;;5017969;28;20513;-70
2022/11/02 04:52:45;;;;;;;16.25;14.68;;;8.90;99.90;;;;;;5015781;28;20037;-70
2022/11/02 04:55:11;;;;;;;16.42;14.68;;;8.90;99.90;;;;;;5047151;28;20056;-70
2022/11/02 04:57:44;;;;;;;15.98;14.23;;;8.90;99.90;;;;;;5004864;28;20055;-70
2022/11/02 05:00:12;;;;;;;17.45;14.88;;;8.90;99.90;;;;;;5023076;28;20674;-72
2022/11/02 05:02:39;;;;;;;19.52;15.30;;;8.90;99.90;;;;;;5037507;28;20045;-73
2022/11/02 05:05:06;;;;;;;19.02;14.73;;;8.90;99.90;;;;;;5021569;28;20132;-72
2022/11/02 05:07:33;;;;;;;17.38;15.55;;;9.00;99.90;;;;;;5037230;28;20434;-72
2022/11/02 05:10:01;;;;;;;17.23;15.85;;;9.20;99.90;;;;;;5035079;28;20056;-72
2022/11/02 05:12:29;;;;;;;19.20;17.15;;;9.40;99.90;;;;;;5013882;28;20050;-71
2022/11/02 05:14:59;;;;;;;23.58;17.27;;;9.60;99.90;;;;;;5033948;28;20538;-71
2022/11/02 05:17:26;;;;;;;18.70;16.90;;;9.80;99.90;;;;;;5035013;28;20330;-71
2022/11/02 05:19:54;;;;;;;20.70;17.65;;;10.00;99.90;;;;;;5030312;28;20046;-70
2022/11/02 05:22:21;;;;;;;20.67;18.52;;;10.10;99.90;;;;;;5021827;28;20405;-71
2022/11/02 05:24:48;;;;;;;21.38;18.63;;;10.30;99.90;;;;;;5037922;28;20044;-71
2022/11/02 05:27:15;;;;;;;18.85;17.40;;;10.50;99.90;;;;;;5021919;28;20061;-71
2022/11/02 05:29:44;;;;;;;20.45;18.58;;;10.50;99.90;;;;;;5013770;28;20570;-70
2022/11/02 05:32:10;;;;;;;24.42;18.67;;;10.60;99.90;;;;;;5021084;28;20065;-71
2022/11/02 05:34:38;;;;;;;20.80;18.80;;;10.70;99.90;;;;;;5020563;28;20061;-71
2022/11/02 05:37:06;;;;;;;21.13;18.95;;;10.70;99.90;;;;;;5017879;28;20034;-71
2022/11/02 05:39:33;;;;;;;20.88;18.70;;;10.70;99.90;;;;;;5033486;28;20159;-69
2022/11/02 05:42:00;;;;;;;22.10;19.85;;;10.70;99.90;;;;;;5036797;28;20041;-70
2022/11/02 05:44:27;;;;;;;20.23;18.75;;;10.80;99.90;;;;;;5020451;28;20049;-71
2022/11/02 05:46:54;;;;;;;20.92;18.55;;;10.70;99.90;;;;;;5026394;28;20043;-71
2022/11/02 05:49:20;;;;;;;20.98;18.90;;;10.80;99.90;;;;;;5024167;28;20048;-71
2022/11/02 05:51:48;;;;;;;21.00;18.85;;;10.80;99.90;;;;;;5016740;28;20033;-71
2022/11/02 05:54:14;;;;;;;20.52;18.92;;;10.80;99.90;;;;;;5016651;28;20576;-70
2022/11/02 05:56:41;;;;;;;20.80;18.98;;;10.70;99.90;;;;;;5035403;28;20067;-71
2022/11/02 05:59:08;;;;;;;22.63;19.38;;;10.70;99.90;;;;;;5010451;28;20038;-71
2022/11/02 06:01:34;;;;;;;21.05;19.10;;;10.70;99.90;;;;;;5031521;28;20052;-71
2022/11/02 06:04:01;;;;;;;19.58;17.67;;;10.70;99.90;;;;;;5030279;28;20072;-70
2022/11/02 06:06:28;;;;;;;21.73;19.50;;;10.70;99.90;;;;;;5020605;28;20056;-70
2022/11/02 06:08:54;;;;;;;21.40;19.08;;;10.60;99.90;;;;;;5036054;28;20033;-71
2022/11/02 06:11:21;;;;;;;20.27;18.67;;;10.70;99.90;;;;;;5027189;28;20048;-70
2022/11/02 06:13:49;;;;;;;19.98;18.05;;;10.70;99.90;;;;;;5019076;28;20396;-72
2022/11/02 06:16:17;;;;;;;21.38;19.40;;;10.70;99.90;;;;;;5017429;28;20128;-69
2022/11/02 06:18:49;;;;;;;21.77;19.05;;;10.80;99.90;;;;;;5018823;28;20088;-67
2022/11/02 06:21:16;;;;;;;21.40;19.20;;;10.80;99.90;;;;;;5016906;28;20048;-70
2022/11/02 06:23:46;;;;;;;20.35;18.45;;;10.70;99.90;;;;;;5026834;28;20042;-70
2022/11/02 06:26:13;;;;;;;21.10;19.15;;;10.70;99.90;;;;;;5004451;28;20150;-70
2022/11/02 06:28:40;;;;;;;19.38;17.98;;;10.70;99.90;;;;;;5024967;28;20044;-70
2022/11/02 06:31:08;;;;;;;21.20;18.98;;;10.70;99.90;;;;;;5014903;28;20615;-70
2022/11/02 06:33:35;;;;;;;20.27;18.23;;;10.70;99.90;;;;;;5014096;28;20136;-71
2022/11/02 06:36:01;;;;;;;21.23;18.02;;;10.80;99.90;;;;;;5014860;28;20059;-71
2022/11/02 06:38:28;;;;;;;22.02;19.90;;;10.80;99.90;;;;;;5022893;28;20071;-71
2022/11/02 06:40:57;;;;;;;21.55;19.58;;;10.80;99.90;;;;;;5031296;28;20045;-71
2022/11/02 06:43:24;;;;;;;20.30;18.77;;;10.80;99.90;;;;;;5019362;28;20159;-70
2022/11/02 06:45:56;;;;;;;22.02;19.75;;;10.80;99.90;;;;;;5031973;28;20041;-72
2022/11/02 06:48:24;;;;;;;23.38;21.20;;;10.80;99.90;;;;;;5023158;28;20145;-72
2022/11/02 06:50:57;;;;;;;23.90;21.30;;;10.80;99.90;;;;;;5016910;28;20037;-72
2022/11/02 06:53:25;;;;;;;23.42;21.08;;;10.80;99.90;;;;;;5021735;28;20103;-71
2022/11/02 06:55:53;;;;;;;22.50;20.27;;;10.90;99.90;;;;;;5016930;28;20045;-72
2022/11/02 06:58:21;;;;;;;23.05;20.48;;;10.90;99.90;;;;;;5028195;28;20124;-70
2022/11/02 07:00:48;;;;;;;21.80;20.00;;;10.90;99.90;;;;;;5017366;28;20037;-70
2022/11/02 07:03:15;;;;;;;23.05;20.83;;;11.00;99.90;;;;;;5049400;28;20056;-70
2022/11/02 07:05:48;;;;;;;22.63;20.77;;;11.10;99.90;;;;;;5019992;28;20148;-71
2022/11/02 07:08:15;;;;;;;21.08;19.48;;;11.00;99.90;;;;;;5039501;28;20041;-70
2022/11/02 07:10:41;;;;;;;21.80;19.73;;;11.10;99.90;;;;;;5016834;28;20067;-70
2022/11/02 07:13:08;;;;;;;20.05;18.17;;;11.10;99.90;;;;;;5019218;28;20635;-70
2022/11/02 07:15:35;;;;;;;22.98;20.15;;;11.20;99.90;;;;;;5018918;28;20042;-70
2022/11/02 07:18:01;;;;;;;29.92;19.40;;;11.10;99.90;;;;;;5022017;28;20136;-70
2022/11/02 07:20:31;;;;;;;22.50;19.70;;;11.20;99.90;;;;;;5018676;28;20554;-71
2022/11/02 07:23:00;;;;;;;23.98;21.75;;;11.20;99.90;;;;;;5015998;28;20676;-70
2022/11/02 07:25:29;;;;;;;24.30;21.70;;;11.20;99.90;;;;;;5041122;23;20669;-69
2022/11/02 07:28:00;;;;;;;22.88;20.95;;;11.20;99.90;;;;;;5016876;28;20042;-70
2022/11/02 07:30:28;;;;;;;23.63;21.63;;;11.30;99.90;;;;;;5021040;28;20041;-68
2022/11/02 07:32:55;;;;;;;23.02;20.95;;;11.30;99.90;;;;;;5017680;28;20129;-69
2022/11/02 07:35:22;;;;;;;22.25;20.73;;;11.30;99.90;;;;;;5020361;28;20376;-69
2022/11/02 07:38:00;;;;;;;23.85;21.80;;;11.40;99.90;;;;;;5017992;28;20052;-68
2022/11/02 07:40:28;;;;;;;22.42;20.55;;;11.40;99.90;;;;;;5027479;28;20049;-69
2022/11/02 07:42:56;;;;;;;24.90;22.52;;;11.40;99.90;;;;;;5029027;28;20149;-69
2022/11/02 07:45:48;;;;;;;23.70;21.40;;;11.40;99.90;;;;;;5023697;28;20522;-68
2022/11/02 07:48:15;;;;;;;23.35;21.33;;;11.60;99.90;;;;;;5028756;28;20045;-70
2022/11/02 07:50:42;;;;;;;23.95;21.23;;;11.60;99.90;;;;;;5025378;28;20056;-69
2022/11/02 07:53:08;;;;;;;22.25;20.10;;;11.60;99.90;;;;;;5028827;28;20045;-69
2022/11/02 07:55:35;;;;;;;24.10;21.77;;;11.70;99.90;;;;;;5026415;28;20511;-69
2022/11/02 07:58:06;;;;;;;22.83;21.05;;;11.70;99.90;;;;;;5030653;28;20041;-69
2022/11/02 08:00:36;;;;;;;25.75;22.90;;;11.80;99.90;;;;;;5026785;28;20451;-70
2022/11/02 08:03:05;;;;;;;22.05;20.40;;;11.90;99.90;;;;;;5042405;28;20045;-70
2022/11/02 08:05:34;;;;;;;22.80;20.85;;;11.80;99.90;;;;;;5027144;28;20109;-70
2022/11/02 08:08:16;;;;;;;21.85;20.15;;;11.80;99.90;;;;;;5027887;28;20048;-69
2022/11/02 08:10:44;;;;;;;23.00;20.88;;;11.80;99.90;;;;;;5023787;28;20055;-68
2022/11/02 08:13:16;;;;;;;24.35;21.98;;;11.90;99.90;;;;;;5027923;28;20484;-68
2022/11/02 08:15:43;;;;;;;24.75;21.40;;;11.80;99.90;;;;;;5029623;28;20053;-69
2022/11/02 08:18:13;;;;;;;23.20;20.95;;;11.80;99.90;;;;;;5028611;28;20053;-69
2022/11/02 08:20:40;;;;;;;23.00;20.95;;;11.80;99.90;;;;;;5020915;28;20045;-68
2022/11/02 08:23:09;;;;;;;22.27;20.33;;;11.80;99.90;;;;;;5021255;28;20072;-70
2022/11/02 08:25:37;;;;;;;23.30;20.95;;;11.80;99.90;;;;;;5020989;28;20045;-70
2022/11/02 08:28:04;;;;;;;23.90;21.38;;;11.70;99.90;;;;;;5029750;28;20045;-69
2022/11/02 08:30:32;;;;;;;22.67;20.98;;;11.70;99.90;;;;;;5018159;28;20049;-68
2022/11/02 08:33:15;;;;;;;24.02;21.67;;;11.70;99.90;;;;;;5026477;28;20056;-68
2022/11/02 08:35:43;;;;;;;22.35;20.58;;;11.80;99.90;;;;;;5025618;28;20122;-69
2022/11/02 08:38:11;;;;;;;23.45;21.00;;;11.80;99.90;;;;;;5018651;28;20079;-69
2022/11/02 08:40:38;;;;;;;23.40;21.10;;;11.80;99.90;;;;;;5015655;28;20053;-69
2022/11/02 08:43:09;;;;;;;22.77;21.00;;;11.80;99.90;;;;;;5017622;28;20049;-69
2022/11/02 08:45:39;;;;;;;22.55;20.33;;;11.70;99.90;;;;;;5021782;28;20295;-69
2022/11/02 08:48:26;;;;;;;23.00;20.90;;;11.80;99.90;;;;;;5018580;28;20495;-74
2022/11/02 08:50:54;;;;;;;22.15;20.40;;;11.80;99.90;;;;;;5015255;28;20037;-70
2022/11/02 08:53:21;;;;;;;23.05;20.70;;;11.80;99.90;;;;;;5022276;28;20045;-70
2022/11/02 08:55:47;;;;;;;22.23;20.55;;;11.90;99.90;;;;;;5015470;28;20049;-70
2022/11/02 08:58:14;;;;;;;23.23;21.13;;;11.90;99.90;;;;;;5016542;28;20050;-70
2022/11/02 09:00:41;;;;;;;23.15;21.30;;;11.90;99.90;;;;;;5016533;28;20048;-69
2022/11/02 09:03:11;;;;;;;22.15;20.30;;;11.90;99.90;;;;;;5019026;28;20944;-70
2022/11/02 09:05:41;;;;;;;22.23;20.08;;;11.90;99.90;;;;;;5016570;28;20042;-70
2022/11/02 09:08:16;;;;;;;23.02;20.77;;;11.90;99.90;;;;;;5017011;28;20041;-70
2022/11/02 09:10:43;;;;;;;23.50;21.60;;;12.00;99.90;;;;;;5014492;28;20108;-70
2022/11/02 09:13:12;;;;;;;22.73;20.88;;;12.00;99.90;;;;;;5017452;28;20136;-70
2022/11/02 09:15:39;;;;;;;22.42;20.40;;;12.00;99.90;;;;;;5014964;28;20148;-70
2022/11/02 09:18:07;;;;;;;22.50;20.75;;;11.90;99.90;;;;;;5017762;28;20055;-70
2022/11/02 09:20:34;;;;;;;22.77;20.77;;;11.90;99.90;;;;;;5025678;28;21118;-70
2022/11/02 09:23:01;;;;;;;21.80;20.25;;;12.00;99.90;;;;;;5023393;28;20503;-70
2022/11/02 09:25:28;;;;;;;23.23;20.95;;;12.10;99.90;;;;;;5023510;28;20041;-70
2022/11/02 09:27:56;;;;;;;22.25;20.05;;;12.10;99.90;;;;;;5026191;28;20076;-70
2022/11/02 09:30:24;;;;;;;22.33;20.55;;;12.20;99.90;;;;;;5027929;28;20056;-70
2022/11/02 09:32:56;;;;;;;21.63;20.13;;;12.20;99.90;;;;;;5023788;28;20803;-70
2022/11/02 09:35:24;;;;;;;28.05;20.48;;;12.10;99.90;;;;;;5021519;28;20438;-70
2022/11/02 09:37:50;;;;;;;21.92;20.00;;;12.00;99.90;;;;;;5012150;28;20037;-70
2022/11/02 09:40:38;;;;;;;21.83;20.17;;;12.00;99.90;;;;;;5016845;28;20044;-71
2022/11/02 09:43:05;;;;;;;21.98;20.23;;;12.10;99.90;;;;;;5016391;28;20503;-70
2022/11/02 09:46:12;;;;;;;21.90;20.15;;;12.10;99.90;;;;;;5016129;28;20092;-71
2022/11/02 09:48:44;;;;;;;22.80;20.90;;;12.10;99.90;;;;;;4969778;28;20046;-68
2022/11/02 09:51:23;;;;;;;22.98;20.60;;;12.30;99.90;;;;;;4971878;28;20069;-71
2022/11/02 09:53:59;;;;;;;23.08;20.67;;;12.20;99.90;;;;;;5000831;28;21186;-68
2022/11/02 09:56:28;;;;;;;21.30;19.52;;;12.40;99.90;;;;;;5024600;28;20041;-68
2022/11/02 09:59:00;;;;;;;23.30;21.13;;;12.50;99.90;;;;;;5023216;28;20139;-68
2022/11/02 10:01:36;;;;;;;23.08;21.15;;;12.60;99.90;;;;;;5029692;28;20132;-69
2022/11/02 10:04:05;;;;;;;23.40;21.35;;;12.50;99.90;;;;;;5029303;28;20045;-68
2022/11/02 10:06:35;;;;;;;23.08;21.10;;;12.40;99.90;;;;;;5013929;28;20053;-71
2022/11/02 10:09:13;;;;;;;23.38;21.67;;;12.40;99.90;;;;;;5021531;28;20041;-68
2022/11/02 10:11:52;;;;;;;23.20;21.15;;;12.30;99.90;;;;;;5020860;28;20042;-68
2022/11/02 10:14:25;;;;;;;22.67;20.73;;;12.50;99.90;;;;;;5027721;28;20044;-71
2022/11/02 10:17:11;;;;;;;22.48;20.50;;;12.80;99.90;;;;;;5021194;28;20573;-69
2022/11/02 10:19:40;;;;;;;23.35;21.25;;;12.90;99.90;;;;;;5018248;28;20049;-68
2022/11/02 10:22:11;;;;;;;22.85;20.92;;;12.90;99.90;;;;;;5019107;28;20041;-71
2022/11/02 10:24:45;;;;;;;22.95;20.98;;;12.90;99.90;;;;;;5031419;28;20069;-71
2022/11/02 10:27:14;;;;;;;22.42;20.70;;;12.80;99.90;;;;;;5025338;28;20045;-70
2022/11/02 10:30:02;;;;;;;26.73;24.05;;;12.50;99.90;;;;;;5031519;28;20053;-70
2022/11/02 10:32:35;;;;;;;24.38;22.08;;;12.50;99.90;;;;;;5019011;28;20037;-70
2022/11/02 10:35:06;;;;;;;23.65;21.80;;;12.60;99.90;;;;;;5025868;28;20048;-68
2022/11/02 10:38:23;;;;;;;23.25;21.40;;;12.80;99.90;;;;;;5018397;28;20050;-69
2022/11/02 10:41:22;;;;;;;24.85;22.65;;;12.80;99.90;;;;;;5016630;28;20522;-70
2022/11/02 10:43:51;;;;;;;23.95;21.98;;;12.90;99.90;;;;;;5013643;28;20071;-70
2022/11/02 10:46:30;;;;;;;23.55;21.70;;;13.00;99.90;;;;;;5021618;28;20045;-68
2022/11/02 10:49:28;;;;;;;23.77;21.75;;;13.20;99.90;;;;;;5017884;28;20068;-68
2022/11/02 10:51:55;;;;;;;23.40;21.42;;;13.30;99.90;;;;;;5016279;28;20041;-68
2022/11/02 10:54:21;;;;;;;23.60;21.45;;;13.30;99.90;;;;;;5021813;28;20045;-70
2022/11/02 10:56:59;;;;;;;23.02;21.20;;;13.40;99.90;;;;;;5027806;28;20468;-70
2022/11/02 10:59:25;;;;;;;23.98;21.70;;;13.30;99.90;;;;;;5025111;28;20543;-68
2022/11/02 11:01:55;;;;;;;22.17;20.60;;;13.30;99.90;;;;;;5017140;28;20041;-68
2022/11/02 11:04:27;;;;;;;23.92;22.13;;;13.10;99.90;;;;;;5015623;28;20049;-68
2022/11/02 11:06:55;;;;;;;23.75;21.77;;;13.30;99.90;;;;;;5010259;28;20600;-69
2022/11/02 11:09:25;;;;;;;24.00;21.65;;;13.10;99.90;;;;;;5030518;28;20155;-68
2022/11/02 11:11:59;;;;;;;23.05;21.23;;;13.10;99.90;;;;;;5016946;28;20063;-67
2022/11/02 11:14:28;;;;;;;23.73;21.73;;;13.20;99.90;;;;;;5016367;28;20038;-68
2022/11/02 11:17:18;;;;;;;23.33;21.38;;;13.30;99.90;;;;;;5017068;28;20048;-69
2022/11/02 11:20:34;;;;;;;23.90;22.25;;;13.30;99.90;;;;;;5015536;28;20055;-69
2022/11/02 11:23:20;;;;;;;;;;;13.60;99.90;;;;;;5029005;28;20495;-68
2022/11/02 11:25:53;;;;;;;;;;;13.90;99.90;;;;;;5014489;28;19931;-68
2022/11/02 11:28:23;;;;;;;22.27;20.38;;;13.70;99.90;;;;;;5042830;28;19921;-68
2022/11/02 11:31:07;;;;;;;23.35;21.33;;;13.50;99.90;;;;;;5016734;28;20041;-71
2022/11/02 11:33:54;;;;;;;23.25;21.52;;;13.10;99.90;;;;;;5017694;28;20491;-70
2022/11/02 11:36:33;;;;;;;24.42;22.67;;;13.10;99.90;;;;;;5028916;28;20111;-70
2022/11/02 11:39:06;;;;;;;23.17;21.33;;;13.10;99.90;;;;;;5015420;28;20046;-70
2022/11/02 11:41:38;;;;;;;23.55;21.25;;;12.90;99.90;;;;;;5019926;28;20072;-70
2022/11/02 11:44:11;;;;;;;23.58;21.60;;;12.70;99.90;;;;;;5025704;28;20037;-70
2022/11/02 11:46:47;;;;;;;24.00;21.38;;;12.60;99.90;;;;;;5016002;28;20049;-70
2022/11/02 11:49:25;;;;;;;23.70;21.52;;;12.50;99.90;;;;;;5018034;28;20045;-69
2022/11/02 11:52:19;;;;;;;23.35;21.33;;;12.30;99.90;;;;;;5017266;28;20322;-70
2022/11/02 11:54:56;;;;;;;23.05;21.40;;;12.30;99.90;;;;;;5017253;28;20045;-70
2022/11/02 11:57:33;;;;;;;22.77;20.83;;;12.20;99.90;;;;;;5019005;28;20040;-70
2022/11/02 12:00:03;;;;;;;24.50;22.33;;;12.20;99.90;;;;;;5016655;28;20531;-70
2022/11/02 12:02:32;;;;;;;22.35;20.33;;;12.40;99.90;;;;;;5023846;28;20534;-69
2022/11/02 12:05:06;;;;;;;21.90;20.27;;;12.80;99.90;;;;;;5018958;28;20195;-71
2022/11/02 12:07:53;;;;;;;21.50;19.95;;;13.00;99.90;;;;;;5028611;28;20037;-70
2022/11/02 12:10:59;;;;;;;26.00;23.35;;;13.40;99.90;;;;;;5019052;28;20069;-70
2022/11/02 12:13:53;;;;;;;21.83;20.20;;;13.50;99.90;;;;;;5044315;28;20049;-70
2022/11/02 12:16:41;;;;;;;22.30;20.88;;;13.50;99.90;;;;;;5025291;28;20155;-69
2022/11/02 12:19:36;;;;;;;23.38;21.73;;;13.80;99.90;;;;;;5024683;28;21124;-70
2022/11/02 12:22:37;;;;;;;23.10;21.60;;;13.80;99.90;;;;;;5024675;28;20323;-70
2022/11/02 12:25:19;;;;;;;24.50;22.25;;;13.80;99.90;;;;;;5022835;28;20652;-69
2022/11/02 12:27:52;;;;;;;22.42;20.88;;;13.80;99.90;;;;;;5023503;28;20056;-69
2022/11/02 12:30:20;;;;;;;24.70;22.67;;;13.80;99.90;;;;;;5021098;28;20438;-68
2022/11/02 12:33:22;;;;;;;24.70;22.48;;;13.90;99.90;;;;;;5020360;28;20037;-68
2022/11/02 12:36:10;;;;;;;24.00;22.05;;;13.90;99.90;;;;;;5019168;28;20033;-68
2022/11/02 12:38:48;;;;;;;24.20;22.38;;;14.00;99.90;;;;;;5024615;28;20063;-68
2022/11/02 12:41:40;;;;;;;24.15;22.27;;;14.00;99.90;;;;;;5005472;28;20136;-68
2022/11/02 12:44:13;;;;;;;24.35;22.35;;;14.00;99.90;;;;;;5022373;28;20045;-71
2022/11/02 12:46:45;;;;;;;23.42;21.80;;;14.00;99.90;;;;;;5036037;28;20042;-69
2022/11/02 12:49:40;;;;;;;24.83;22.75;;;13.90;99.90;;;;;;5015712;28;20538;-70
2022/11/02 12:52:31;;;;;;;23.52;21.70;;;13.90;99.90;;;;;;5017125;28;20053;-67
2022/11/02 12:55:01;;;;;;;24.40;22.45;;;14.10;99.90;;;;;;5015063;28;20161;-68
2022/11/02 12:57:33;;;;;;;24.23;22.33;;;14.20;99.90;;;;;;5017336;28;20038;-68
2022/11/02 13:00:05;;;;;;;24.15;22.48;;;14.10;99.90;;;;;;5015046;28;20462;-71
2022/11/02 13:02:43;;;;;;;24.15;22.27;;;13.90;99.90;;;;;;5019516;28;20044;-68
2022/11/02 13:05:22;;;;;;;25.08;22.80;;;13.80;99.90;;;;;;5017325;28;20049;-68
2022/11/02 13:08:08;;;;;;;24.48;22.38;;;13.80;99.90;;;;;;5018086;28;20045;-67
2022/11/02 13:10:56;;;;;;;23.90;21.60;;;13.90;99.90;;;;;;5011660;28;20060;-68
2022/11/02 13:13:53;;;;;;;23.48;21.48;;;13.90;99.90;;;;;;5023693;28;20047;-70
2022/11/02 13:16:32;;;;;;;24.00;21.83;;;14.10;99.90;;;;;;5008625;28;20380;-68